createdAt,value
2018-02-21T00:01:34.069Z,60.83
2018-02-21T00:04:01.625Z,56.55
2018-02-21T00:06:29.157Z,59.40
2018-02-21T00:08:56.726Z,67.00
2018-02-21T00:11:24.316Z,60.42
2018-02-21T00:13:51.884Z,68.68
2018-02-21T00:16:19.436Z,53.70
2018-02-21T00:18:46.974Z,57.78
2018-02-21T00:21:14.543Z,59.42
2018-02-21T00:23:42.092Z,58.92
2018-02-21T00:26:09.661Z,61.40
2018-02-21T00:28:37.225Z,56.95
2018-02-21T00:31:04.789Z,53.45
2018-02-21T00:33:32.345Z,65.80
2018-02-21T00:35:59.912Z,49.15
2018-02-21T00:38:27.477Z,68.47
2018-02-21T00:40:55.059Z,58.90
2018-02-21T00:43:22.600Z,61.58
2018-02-21T00:45:50.162Z,59.13
2018-02-21T00:48:17.728Z,59.35
2018-02-21T00:50:46.817Z,52.20
2018-02-21T00:53:14.388Z,61.28
2018-02-21T00:55:41.928Z,61.00
2018-02-21T00:58:09.480Z,50.70
2018-02-21T01:00:37.032Z,56.17
2018-02-21T01:03:04.604Z,61.35
2018-02-21T01:05:32.153Z,57.83
2018-02-21T01:07:59.711Z,57.22
2018-02-21T01:10:27.235Z,54.20
2018-02-21T01:12:55.557Z,59.92
2018-02-21T01:15:23.089Z,53.45
2018-02-21T01:17:50.649Z,58.30
2018-02-21T01:20:18.209Z,54.88
2018-02-21T01:22:45.793Z,51.50
2018-02-21T01:25:13.333Z,62.75
2018-02-21T01:27:40.898Z,43.90
2018-02-21T01:30:08.485Z,53.35
2018-02-21T01:32:36.049Z,52.10
2018-02-21T01:35:03.602Z,48.38
2018-02-21T01:37:31.152Z,52.28
2018-02-21T01:39:58.747Z,51.45
2018-02-21T01:42:26.292Z,48.40
2018-02-21T01:44:53.851Z,55.25
2018-02-21T01:47:21.408Z,59.53
2018-02-21T01:49:48.953Z,45.78
2018-02-21T01:52:16.503Z,50.75
2018-02-21T01:54:44.096Z,50.15
2018-02-21T01:57:11.652Z,58.67
2018-02-21T01:59:39.217Z,53.70
2018-02-21T02:02:06.784Z,52.35
2018-02-21T02:04:34.332Z,53.05
2018-02-21T02:07:01.889Z,50.67
2018-02-21T02:09:29.444Z,49.38
2018-02-21T02:11:57.186Z,49.95
2018-02-21T02:14:24.746Z,57.65
2018-02-21T02:16:52.292Z,49.50
2018-02-21T02:19:19.847Z,48.22
2018-02-21T02:21:47.401Z,50.25
2018-02-21T02:24:15.726Z,52.62
2018-02-21T02:26:43.280Z,48.53
2018-02-21T02:29:10.834Z,46.60
2018-02-21T02:31:38.389Z,50.72
2018-02-21T02:34:05.928Z,52.25
2018-02-21T02:36:33.498Z,47.65
2018-02-21T02:39:12.937Z,50.03
2018-02-21T02:41:40.540Z,56.25
2018-02-21T02:44:08.085Z,56.80
2018-02-21T02:46:35.629Z,52.70
2018-02-21T02:49:03.208Z,52.72
2018-02-21T02:51:30.750Z,57.40
2018-02-21T02:53:58.310Z,55.55
2018-02-21T02:56:25.878Z,59.90
2018-02-21T02:58:53.442Z,55.60
2018-02-21T03:01:20.981Z,51.37
2018-02-21T03:03:48.525Z,50.12
2018-02-21T03:06:16.084Z,63.10
2018-02-21T03:08:43.646Z,64.30
2018-02-21T03:11:11.200Z,44.55
2018-02-21T03:13:39.503Z,57.25
2018-02-21T03:16:07.063Z,53.65
2018-02-21T03:18:34.622Z,54.30
2018-02-21T03:21:02.186Z,54.45
2018-02-21T03:23:29.740Z,49.03
2018-02-21T03:25:57.305Z,56.10
2018-02-21T03:28:24.854Z,55.78
2018-02-21T03:30:52.414Z,53.58
2018-02-21T03:33:19.969Z,56.65
2018-02-21T03:35:47.536Z,55.45
2018-02-21T03:38:15.087Z,44.83
2018-02-21T03:40:42.651Z,46.92
2018-02-21T03:43:10.203Z,54.17
2018-02-21T03:45:37.760Z,56.75
2018-02-21T03:48:05.324Z,52.35
2018-02-21T03:50:32.872Z,58.80
2018-02-21T03:53:01.197Z,53.08
2018-02-21T03:55:28.740Z,54.03
2018-02-21T03:57:56.304Z,62.47
2018-02-21T04:00:23.844Z,60.15
2018-02-21T04:02:51.410Z,60.38
2018-02-21T04:05:18.968Z,54.83
2018-02-21T04:07:46.509Z,57.33
2018-02-21T04:10:14.822Z,58.13
2018-02-21T04:12:42.404Z,63.17
2018-02-21T04:15:09.958Z,57.30
2018-02-21T04:17:37.555Z,60.20
2018-02-21T04:20:05.881Z,57.95
2018-02-21T04:22:33.456Z,63.97
2018-02-21T04:25:01.012Z,60.20
2018-02-21T04:27:28.561Z,67.05
2018-02-21T04:29:56.105Z,56.00
2018-02-21T04:32:23.654Z,67.70
2018-02-21T04:34:51.220Z,61.63
2018-02-21T04:37:18.780Z,62.08
2018-02-21T04:39:46.336Z,66.60
2018-02-21T04:42:13.872Z,70.93
2018-02-21T04:44:42.193Z,72.78
2018-02-21T04:47:09.752Z,59.17
2018-02-21T04:49:37.285Z,66.32
2018-02-21T04:52:05.600Z,70.25
2018-02-21T05:07:53.132Z,64.80
2018-02-21T05:10:20.688Z,69.20
2018-02-21T05:12:48.245Z,67.15
2018-02-21T05:15:15.785Z,63.20
2018-02-21T05:17:43.353Z,72.10
2018-02-21T05:20:10.920Z,71.93
2018-02-21T05:22:38.489Z,65.82
2018-02-21T05:25:06.029Z,67.72
2018-02-21T05:27:33.583Z,69.00
2018-02-21T05:30:01.149Z,60.83
2018-02-21T05:32:28.702Z,64.12
2018-02-21T05:34:56.247Z,66.00
2018-02-21T05:37:23.823Z,66.95
2018-02-21T05:39:51.353Z,59.53
2018-02-21T05:42:18.921Z,59.10
2018-02-21T05:44:46.465Z,57.75
2018-02-21T05:47:14.796Z,60.03
2018-02-21T05:49:42.340Z,61.40
2018-02-21T05:52:10.005Z,61.37
2018-02-21T05:54:38.452Z,58.78
2018-02-21T05:57:06.801Z,56.10
2018-02-21T05:59:34.339Z,54.13
2018-02-21T06:02:01.888Z,57.65
2018-02-21T06:04:29.428Z,54.83
2018-02-21T06:06:56.989Z,63.17
2018-02-21T06:09:24.565Z,55.97
2018-02-21T06:11:52.128Z,51.45
2018-02-21T06:14:19.691Z,65.82
2018-02-21T06:16:48.165Z,55.40
2018-02-21T06:19:15.711Z,55.22
2018-02-21T06:21:43.264Z,49.25
2018-02-21T06:24:10.795Z,49.03
2018-02-21T06:26:39.101Z,46.28
2018-02-21T06:29:06.700Z,55.53
2018-02-21T06:31:34.252Z,57.83
2018-02-21T06:34:01.817Z,56.95
2018-02-21T06:36:29.358Z,57.80
2018-02-21T06:38:56.929Z,56.35
2018-02-21T06:41:24.467Z,54.85
2018-02-21T06:43:52.050Z,56.63
2018-02-21T06:46:19.601Z,46.00
2018-02-21T06:48:47.166Z,53.83
2018-02-21T06:51:14.714Z,60.85
2018-02-21T06:53:42.283Z,56.50
2018-02-21T06:56:09.845Z,54.00
2018-02-21T06:58:37.378Z,54.72
2018-02-21T07:01:05.704Z,59.90
2018-02-21T07:03:33.239Z,57.72
2018-02-21T07:06:00.797Z,60.95
2018-02-21T07:08:28.809Z,62.92
2018-02-21T07:10:56.373Z,58.47
2018-02-21T07:13:23.912Z,68.15
2018-02-21T07:15:52.254Z,62.03
2018-02-21T07:18:19.797Z,64.20
2018-02-21T07:20:47.335Z,63.65
2018-02-21T07:23:14.898Z,76.15
2018-02-21T07:25:42.434Z,61.08
2018-02-21T07:28:10.003Z,69.07
2018-02-21T07:30:37.549Z,68.72
2018-02-21T07:33:05.117Z,72.53
2018-02-21T07:35:32.696Z,61.63
2018-02-21T07:38:00.281Z,68.95
2018-02-21T07:40:28.597Z,64.82
2018-02-21T07:42:56.177Z,61.30
2018-02-21T07:45:23.746Z,60.72
2018-02-21T07:47:51.305Z,68.47
2018-02-21T07:50:18.884Z,70.40
2018-02-21T07:52:46.445Z,61.05
2018-02-21T07:55:14.006Z,64.10
2018-02-21T07:57:41.546Z,61.65
2018-02-21T08:00:09.129Z,62.28
2018-02-21T08:02:37.451Z,67.47
2018-02-21T08:05:05.116Z,66.37
2018-02-21T08:07:32.715Z,58.63
2018-02-21T08:10:00.258Z,59.65
2018-02-21T08:12:29.109Z,70.28
2018-02-21T08:14:56.675Z,68.30
2018-02-21T08:17:24.256Z,74.97
2018-02-21T08:19:51.808Z,72.60
2018-02-21T08:22:19.364Z,79.12
2018-02-21T08:24:46.932Z,67.05
2018-02-21T08:27:14.491Z,67.60
2018-02-21T08:29:42.116Z,68.82
2018-02-21T08:32:10.428Z,66.75
2018-02-21T08:34:38.053Z,78.93
2018-02-21T08:37:05.590Z,70.85
2018-02-21T08:39:33.171Z,68.43
2018-02-21T08:42:01.502Z,72.68
2018-02-21T08:44:29.068Z,72.20
2018-02-21T08:46:56.639Z,66.78
2018-02-21T08:49:24.213Z,63.85
2018-02-21T08:51:51.786Z,58.05
2018-02-21T08:54:20.132Z,57.85
2018-02-21T08:56:47.681Z,73.95
2018-02-21T08:59:15.257Z,62.62
2018-02-21T09:01:42.818Z,77.20
2018-02-21T09:04:10.398Z,67.97
2018-02-21T09:06:38.746Z,72.05
2018-02-21T09:09:06.305Z,62.80
2018-02-21T09:11:33.893Z,76.10
2018-02-21T09:14:02.250Z,66.12
2018-02-21T09:16:29.865Z,64.53
2018-02-21T09:18:57.422Z,57.30
2018-02-21T09:21:24.989Z,61.88
2018-02-21T09:23:52.537Z,56.58
2018-02-21T09:26:20.121Z,66.68
2018-02-21T09:28:47.707Z,70.20
2018-02-21T09:31:15.283Z,67.65
2018-02-21T09:33:42.822Z,72.95
2018-02-21T09:36:10.374Z,71.53
2018-02-21T09:38:37.982Z,74.15
2018-02-21T09:41:06.328Z,58.97
2018-02-21T09:43:33.909Z,70.57
2018-02-21T09:46:02.241Z,65.32
2018-02-21T09:48:29.785Z,59.25
2018-02-21T09:50:57.354Z,69.60
2018-02-21T09:53:24.924Z,70.12
2018-02-21T09:55:52.500Z,57.13
2018-02-21T09:58:20.048Z,68.72
2018-02-21T10:00:47.615Z,53.05
2018-02-21T10:03:15.164Z,63.97
2018-02-21T10:05:42.738Z,73.95
2018-02-21T10:08:10.310Z,78.12
2018-02-21T10:10:37.940Z,78.43
2018-02-21T10:13:05.470Z,66.82
2018-02-21T10:15:33.816Z,69.40
2018-02-21T10:18:01.389Z,67.93
2018-02-21T10:20:28.932Z,61.30
2018-02-21T10:22:56.521Z,65.12
2018-02-21T10:25:24.894Z,74.97
2018-02-21T10:27:53.245Z,71.45
2018-02-21T10:30:20.802Z,68.47
2018-02-21T10:32:48.848Z,59.85
2018-02-21T10:35:16.413Z,70.78
2018-02-21T10:37:43.991Z,60.83
2018-02-21T10:40:11.560Z,66.78
2018-02-21T10:42:39.126Z,62.13
2018-02-21T10:45:06.682Z,59.78
2018-02-21T10:47:34.254Z,51.42
2018-02-21T10:50:01.825Z,59.28
2018-02-21T10:52:30.149Z,59.80
2018-02-21T10:54:57.724Z,72.20
2018-02-21T10:57:25.273Z,65.43
2018-02-21T10:59:52.838Z,64.50
2018-02-21T11:02:20.400Z,73.53
2018-02-21T11:04:47.985Z,64.53
2018-02-21T11:07:15.542Z,60.15
2018-02-21T11:09:43.109Z,76.60
2018-02-21T11:12:10.645Z,55.38
2018-02-21T11:14:38.225Z,65.45
2018-02-21T11:17:05.785Z,68.53
2018-02-21T11:19:33.335Z,66.90
2018-02-21T11:22:00.917Z,67.82
2018-02-21T11:24:29.238Z,72.20
2018-02-21T11:26:57.101Z,62.88
2018-02-21T11:29:24.682Z,74.75
2018-02-21T11:31:52.246Z,68.43
2018-02-21T11:34:19.834Z,63.33
2018-02-21T11:36:47.402Z,69.25
2018-02-21T11:39:14.992Z,75.82
2018-02-21T11:41:42.540Z,72.60
2018-02-21T11:44:10.883Z,75.62
2018-02-21T11:46:38.435Z,71.80
2018-02-21T11:49:05.993Z,74.65
2018-02-21T11:51:33.548Z,69.62
2018-02-21T11:54:01.112Z,68.93
2018-02-21T11:56:28.680Z,67.78
2018-02-21T11:58:57.041Z,75.97
2018-02-21T12:01:24.610Z,78.62
2018-02-21T12:03:52.179Z,64.07
2018-02-21T12:06:19.748Z,71.97
2018-02-21T12:08:48.086Z,65.82
2018-02-21T12:11:15.621Z,71.85
2018-02-21T12:13:43.958Z,70.68
2018-02-21T12:16:11.552Z,65.43
2018-02-21T12:18:39.878Z,68.62
2018-02-21T12:21:07.449Z,65.62
2018-02-21T12:23:35.031Z,59.08
2018-02-21T12:26:02.846Z,61.60
2018-02-21T12:28:30.449Z,60.45
2018-02-21T12:30:57.993Z,63.20
2018-02-21T12:33:25.592Z,57.70
2018-02-21T12:35:53.914Z,58.38
2018-02-21T12:38:21.517Z,55.92
2018-02-21T12:40:55.564Z,60.50
2018-02-21T12:43:23.122Z,74.53
2018-02-21T12:45:50.696Z,62.25
2018-02-21T12:48:18.261Z,60.95
2018-02-21T12:50:45.826Z,67.45
2018-02-21T12:53:13.413Z,68.75
2018-02-21T12:55:40.974Z,62.38
2018-02-21T12:58:08.539Z,60.88
2018-02-21T13:00:36.100Z,61.55
2018-02-21T13:03:03.706Z,59.50
2018-02-21T13:05:31.288Z,63.42
2018-02-21T13:07:58.868Z,65.37
2018-02-21T13:10:26.426Z,56.17
2018-02-21T13:12:54.019Z,51.83
2018-02-21T13:15:21.736Z,50.22
2018-02-21T13:17:49.308Z,50.70
2018-02-21T13:20:16.854Z,51.45
2018-02-21T13:22:44.437Z,49.33
2018-02-21T13:25:12.560Z,47.00
2018-02-21T13:27:40.901Z,47.22
2018-02-21T13:30:08.514Z,51.13
2018-02-21T13:32:36.072Z,43.87
2018-02-21T13:35:03.690Z,46.88
2018-02-21T13:37:31.271Z,44.92
2018-02-21T13:39:59.656Z,42.45
2018-02-21T13:42:27.974Z,43.95
2018-02-21T13:44:55.547Z,44.38
2018-02-21T13:47:23.106Z,46.45
2018-02-21T13:49:50.686Z,39.45
2018-02-21T13:52:18.238Z,41.67
2018-02-21T13:54:45.798Z,43.08
2018-02-21T13:57:13.350Z,42.62
2018-02-21T13:59:40.926Z,48.28
2018-02-21T14:02:08.481Z,44.60
2018-02-21T14:04:36.108Z,43.92
2018-02-21T14:07:03.694Z,50.05
2018-02-21T14:09:31.248Z,45.67
2018-02-21T14:12:00.759Z,46.30
2018-02-21T14:14:28.325Z,44.60
2018-02-21T14:16:55.885Z,41.78
2018-02-21T14:19:23.455Z,47.62
2018-02-21T14:21:51.045Z,47.65
2018-02-21T14:24:18.638Z,49.22
2018-02-21T14:26:46.219Z,47.75
2018-02-21T14:29:13.768Z,45.72
2018-02-21T14:31:41.350Z,45.80
2018-02-21T14:34:08.905Z,47.72
2018-02-21T14:36:36.485Z,46.55
2018-02-21T14:39:04.062Z,42.75
2018-02-21T14:41:32.428Z,46.22
2018-02-21T14:44:00.754Z,43.22
2018-02-21T14:46:28.341Z,48.33
2018-02-21T14:48:55.909Z,53.00
2018-02-21T14:51:23.489Z,48.17
2018-02-21T14:53:51.819Z,54.80
2018-02-21T14:56:19.392Z,48.33
2018-02-21T14:58:47.459Z,48.83
2018-02-21T15:01:15.013Z,50.33
2018-02-21T15:03:42.606Z,50.55
2018-02-21T15:06:10.198Z,49.88
2018-02-21T15:08:38.534Z,52.88
2018-02-21T15:11:06.094Z,49.80
2018-02-21T15:13:33.682Z,49.35
2018-02-21T15:16:02.005Z,47.58
2018-02-21T15:18:29.613Z,122.30
2018-02-21T15:20:57.158Z,122.62
2018-02-21T15:23:24.767Z,51.37
2018-02-21T15:25:53.046Z,47.40
2018-02-21T15:28:20.672Z,49.55
2018-02-21T15:30:48.246Z,50.12
2018-02-21T15:33:16.583Z,48.50
2018-02-21T15:35:44.134Z,49.05
2018-02-21T15:38:11.688Z,47.58
2018-02-21T15:40:39.293Z,48.78
2018-02-21T15:43:07.677Z,46.35
2018-02-21T15:45:36.045Z,42.42
2018-02-21T15:48:03.613Z,42.95
2018-02-21T15:50:31.185Z,45.88
2018-02-21T15:52:59.497Z,45.75
2018-02-21T15:55:27.081Z,43.72
2018-02-21T15:57:54.643Z,42.03
2018-02-21T16:00:22.237Z,45.45
2018-02-21T16:02:50.576Z,45.72
2018-02-21T16:05:18.138Z,47.28
2018-02-21T16:07:45.698Z,45.45
2018-02-21T16:10:13.269Z,46.15
2018-02-21T16:12:40.822Z,50.95
2018-02-21T16:15:08.432Z,55.12
2018-02-21T16:17:36.015Z,48.90
2018-02-21T16:20:04.047Z,49.20
2018-02-21T16:22:32.798Z,47.08
2018-02-21T16:25:00.357Z,49.05
2018-02-21T16:27:27.927Z,46.00
2018-02-21T16:29:55.471Z,47.38
2018-02-21T16:32:23.068Z,45.78
2018-02-21T16:34:51.392Z,50.40
2018-02-21T16:37:18.974Z,53.20
2018-02-21T16:39:46.531Z,46.33
2018-02-21T16:42:14.129Z,50.58
2018-02-21T16:44:42.488Z,45.30
2018-02-21T16:47:10.042Z,48.87
2018-02-21T16:49:37.635Z,54.95
2018-02-21T16:52:05.966Z,47.45
2018-02-21T16:54:37.566Z,51.40
2018-02-21T16:57:05.893Z,55.20
2018-02-21T16:59:33.506Z,54.30
2018-02-21T17:02:01.822Z,57.15
2018-02-21T17:04:29.394Z,58.05
2018-02-21T17:06:56.934Z,48.13
2018-02-21T17:09:24.518Z,53.92
2018-02-21T17:11:52.098Z,52.13
2018-02-21T17:14:19.686Z,57.15
2018-02-21T17:16:48.027Z,55.35
2018-02-21T17:19:15.597Z,52.33
2018-02-21T17:21:43.189Z,53.85
2018-02-21T17:24:11.552Z,66.75
2018-02-21T17:26:40.008Z,52.28
2018-02-21T17:29:07.561Z,61.37
2018-02-21T17:31:35.124Z,52.05
2018-02-21T17:34:02.694Z,53.55
2018-02-21T17:36:30.259Z,50.45
2018-02-21T17:38:57.873Z,53.28
2018-02-21T17:41:31.093Z,54.45
2018-02-21T17:43:58.641Z,51.60
2018-02-21T17:46:26.205Z,50.90
2018-02-21T17:48:53.844Z,54.10
2018-02-21T17:51:21.406Z,55.22
2018-02-21T17:53:49.039Z,52.95
2018-02-21T17:56:17.401Z,45.60
2018-02-21T17:58:44.974Z,55.90
2018-02-21T18:01:13.319Z,48.58
2018-02-21T18:03:40.923Z,56.30
2018-02-21T18:06:09.270Z,54.40
2018-02-21T18:08:36.908Z,52.28
2018-02-21T18:11:04.481Z,54.67
2018-02-21T18:13:32.049Z,49.85
2018-02-21T18:15:59.651Z,56.17
2018-02-21T18:18:28.045Z,55.25
2018-02-21T18:20:56.750Z,57.42
2018-02-21T18:23:24.318Z,62.42
2018-02-21T18:25:51.909Z,53.17
2018-02-21T18:28:19.513Z,57.10
2018-02-21T18:30:47.455Z,52.62
2018-02-21T18:33:15.810Z,50.15
2018-02-21T18:35:43.397Z,55.05
2018-02-21T18:38:11.717Z,48.58
2018-02-21T18:40:39.280Z,50.05
2018-02-21T18:43:06.887Z,53.63
2018-02-21T18:45:34.450Z,56.42
2018-02-21T18:48:02.230Z,54.30
2018-02-21T18:50:30.573Z,54.17
2018-02-21T18:52:58.185Z,58.00
2018-02-21T18:55:25.814Z,54.97
2018-02-21T18:57:54.170Z,48.65
2018-02-21T19:00:21.740Z,49.50
2018-02-21T19:02:49.477Z,56.08
2018-02-21T19:05:17.029Z,47.70
2018-02-21T19:07:44.606Z,50.92
2018-02-21T19:10:12.252Z,56.63
2018-02-21T19:12:39.854Z,52.28
2018-02-21T19:15:07.438Z,49.55
2018-02-21T19:17:35.761Z,40.12
2018-02-21T19:20:03.367Z,45.10
2018-02-21T19:22:31.714Z,53.20
2018-02-21T19:24:59.294Z,47.90
2018-02-21T19:27:26.845Z,38.95
2018-02-21T19:29:54.450Z,45.83
2018-02-21T19:32:22.022Z,42.75
2018-02-21T19:34:49.622Z,46.25
2018-02-21T19:37:17.240Z,41.53
2018-02-21T19:39:45.552Z,44.05
2018-02-21T19:42:13.121Z,48.67
2018-02-21T19:44:40.718Z,44.25
2018-02-21T19:47:09.074Z,40.90
2018-02-21T19:49:37.244Z,41.67
2018-02-21T19:52:04.800Z,39.65
2018-02-21T19:54:32.371Z,34.08
2018-02-21T19:56:59.983Z,32.60
2018-02-21T19:59:27.605Z,39.65
2018-02-21T20:01:55.949Z,35.38
2018-02-21T20:04:23.534Z,40.55
2018-02-21T20:06:51.128Z,36.28
2018-02-21T20:09:18.733Z,31.10
2018-02-21T20:11:46.305Z,34.28
2018-02-21T20:14:13.902Z,36.38
2018-02-21T20:16:41.503Z,35.17
2018-02-21T20:19:09.080Z,37.10
2018-02-21T20:21:36.679Z,39.97
2018-02-21T20:24:05.138Z,34.00
2018-02-21T20:26:32.767Z,36.15
2018-02-21T20:29:00.333Z,34.15
2018-02-21T20:31:27.919Z,39.17
2018-02-21T20:33:55.493Z,40.70
2018-02-21T20:36:23.850Z,40.58
2018-02-21T20:38:51.423Z,44.80
2018-02-21T20:41:19.768Z,46.22
2018-02-21T20:43:47.365Z,44.90
2018-02-21T20:46:15.714Z,32.08
2018-02-21T20:48:43.293Z,35.60
2018-02-21T20:51:11.634Z,34.47
2018-02-21T20:53:39.195Z,37.45
2018-02-21T20:56:06.783Z,39.88
2018-02-21T20:58:34.374Z,39.92
2018-02-21T21:01:02.744Z,38.45
2018-02-21T21:03:31.138Z,44.35
2018-02-21T21:05:59.468Z,41.05
2018-02-21T21:08:27.035Z,41.10
2018-02-21T21:10:54.597Z,40.35
2018-02-21T21:13:22.163Z,38.60
2018-02-21T21:15:49.739Z,42.35
2018-02-21T21:18:18.086Z,35.20
2018-02-21T21:20:45.628Z,35.65
2018-02-21T21:23:13.224Z,43.67
2018-02-21T21:25:40.776Z,42.88
2018-02-21T21:28:08.355Z,39.92
2018-02-21T21:30:35.940Z,42.72
2018-02-21T21:33:04.249Z,38.50
2018-02-21T21:35:31.823Z,38.10
2018-02-21T21:37:59.416Z,41.22
2018-02-21T21:40:26.985Z,42.13
2018-02-21T21:42:55.317Z,42.17
2018-02-21T21:45:22.933Z,48.15
2018-02-21T21:47:51.252Z,48.30
2018-02-21T21:50:18.875Z,40.95
2018-02-21T21:52:47.201Z,40.10
2018-02-21T21:55:14.764Z,42.05
2018-02-21T21:57:42.404Z,53.58
2018-02-21T22:00:09.969Z,43.55
2018-02-21T22:02:37.556Z,38.25
2018-02-21T22:05:05.104Z,39.90
2018-02-21T22:07:32.680Z,46.75
2018-02-21T22:10:00.242Z,40.47
2018-02-21T22:12:27.836Z,46.20
2018-02-21T22:14:55.417Z,44.17
2018-02-21T22:17:23.038Z,48.03
2018-02-21T22:19:50.622Z,53.53
2018-02-21T22:22:18.214Z,48.83
2018-02-21T22:24:45.756Z,46.95
2018-02-21T22:27:13.320Z,48.65
2018-02-21T22:29:40.889Z,40.15
2018-02-21T22:32:08.448Z,54.63
2018-02-21T22:34:36.060Z,51.88
2018-02-21T22:37:03.634Z,51.72
2018-02-21T22:39:31.959Z,51.47
2018-02-21T22:41:59.528Z,48.95
2018-02-21T22:44:27.136Z,45.50
2018-02-21T22:46:55.477Z,38.83
2018-02-21T22:49:23.081Z,41.88
2018-02-21T22:51:50.633Z,44.88
2018-02-21T22:54:19.020Z,52.97
2018-02-21T22:56:47.361Z,44.65
2018-02-21T22:59:14.945Z,47.10
2018-02-21T23:01:43.280Z,47.50
2018-02-21T23:04:10.839Z,42.85
2018-02-21T23:06:38.426Z,39.13
2018-02-21T23:09:05.968Z,48.83
2018-02-21T23:11:34.330Z,53.58
2018-02-21T23:14:01.886Z,43.00
2018-02-21T23:16:29.448Z,45.10
2018-02-21T23:18:57.016Z,48.40
2018-02-21T23:21:24.581Z,42.45
2018-02-21T23:23:52.133Z,52.60
2018-02-21T23:26:19.729Z,50.38
2018-02-21T23:28:47.312Z,43.30
2018-02-21T23:31:15.649Z,45.17
2018-02-21T23:33:43.219Z,45.83
2018-02-21T23:36:10.769Z,43.53
2018-02-21T23:38:38.330Z,45.28
2018-02-21T23:41:05.904Z,37.65
2018-02-21T23:43:34.985Z,41.08
2018-02-21T23:46:02.597Z,45.72
2018-02-21T23:48:30.164Z,38.70
2018-02-21T23:50:57.746Z,44.88
2018-02-21T23:53:25.306Z,44.15
2018-02-21T23:55:52.883Z,50.65
2018-02-21T23:58:20.431Z,46.20
